createdAt,value
2023-03-02T00:00:57.584Z,94920.00
2023-03-02T00:04:57.779Z,94926.00
2023-03-02T00:08:57.766Z,94932.00
2023-03-02T00:12:57.852Z,94934.00
2023-03-02T00:16:58.013Z,94936.00
2023-03-02T00:20:58.171Z,94922.00
2023-03-02T00:24:58.291Z,94924.00
2023-03-02T00:28:58.330Z,94930.00
2023-03-02T00:32:58.465Z,94924.00
2023-03-02T00:36:58.482Z,94930.00
2023-03-02T00:40:58.536Z,94930.00
2023-03-02T00:44:58.615Z,94926.00
2023-03-02T00:48:58.657Z,94928.00
2023-03-02T00:52:58.669Z,94928.00
2023-03-02T00:56:58.737Z,94924.00
2023-03-02T01:00:58.808Z,94932.00
2023-03-02T01:04:58.789Z,94924.00
2023-03-02T01:08:58.836Z,94924.00
2023-03-02T01:12:58.900Z,94910.00
2023-03-02T01:16:58.884Z,94906.00
2023-03-02T01:20:58.943Z,94906.00
2023-03-02T01:24:58.961Z,94900.00
2023-03-02T01:28:58.979Z,94902.00
2023-03-02T01:32:59.014Z,94893.00
2023-03-02T01:36:58.999Z,94895.00
2023-03-02T01:40:58.942Z,94891.00
2023-03-02T01:44:58.956Z,94879.00
2023-03-02T01:48:58.942Z,94879.00
2023-03-02T01:52:58.934Z,94891.00
2023-03-02T01:56:59.004Z,94889.00
2023-03-02T02:00:58.971Z,94889.00
2023-03-02T02:04:58.922Z,94879.00
2023-03-02T02:08:58.894Z,94879.00
2023-03-02T02:12:58.868Z,94881.00
2023-03-02T02:16:58.933Z,94891.00
2023-03-02T02:20:58.855Z,94891.00
2023-03-02T02:24:58.857Z,94879.00
2023-03-02T02:28:58.905Z,94875.00
2023-03-02T02:32:58.793Z,94871.00
2023-03-02T02:36:58.778Z,94863.00
2023-03-02T02:40:58.806Z,94863.00
2023-03-02T02:44:58.875Z,94853.00
2023-03-02T02:48:58.800Z,94857.00
2023-03-02T02:52:58.770Z,94849.00
2023-03-02T02:56:58.771Z,94846.00
2023-03-02T03:00:58.875Z,94847.00
2023-03-02T03:04:58.841Z,94847.00
2023-03-02T03:08:58.858Z,94846.00
2023-03-02T03:12:58.836Z,94836.00
2023-03-02T03:16:58.936Z,94836.00
2023-03-02T03:20:58.882Z,94842.00
2023-03-02T03:24:58.902Z,94836.00
2023-03-02T03:28:58.936Z,94838.00
2023-03-02T03:32:58.960Z,94840.00
2023-03-02T03:36:58.985Z,94844.00
2023-03-02T03:40:58.999Z,94838.00
2023-03-02T03:44:59.024Z,94842.00
2023-03-02T03:48:59.051Z,94840.00
2023-03-02T03:52:58.976Z,94834.00
2023-03-02T03:56:58.984Z,94838.00
2023-03-02T04:00:58.996Z,94844.00
2023-03-02T04:04:58.955Z,94847.00
2023-03-02T04:08:58.934Z,94847.00
2023-03-02T04:12:58.943Z,94838.00
2023-03-02T04:16:58.919Z,94838.00
2023-03-02T04:20:58.924Z,94838.00
2023-03-02T04:24:58.886Z,94836.00
2023-03-02T04:28:58.882Z,94832.00
2023-03-02T04:32:58.887Z,94826.00
2023-03-02T04:36:58.865Z,94828.00
2023-03-02T04:40:58.828Z,94828.00
2023-03-02T04:44:58.860Z,94824.00
2023-03-02T04:48:58.809Z,94822.00
2023-03-02T04:52:58.878Z,94822.00
2023-03-02T04:56:58.785Z,94820.00
2023-03-02T05:00:58.742Z,94818.00
2023-03-02T05:04:58.732Z,94822.00
2023-03-02T05:08:58.681Z,94826.00
2023-03-02T05:12:58.672Z,94824.00
2023-03-02T05:16:58.698Z,94824.00
2023-03-02T05:20:58.645Z,94822.00
2023-03-02T05:24:58.666Z,94824.00
2023-03-02T05:28:58.632Z,94830.00
2023-03-02T05:32:58.637Z,94830.00
2023-03-02T05:36:58.606Z,94838.00
2023-03-02T05:40:58.602Z,94842.00
2023-03-02T05:44:58.619Z,94840.00
2023-03-02T05:48:58.582Z,94840.00
2023-03-02T05:52:58.585Z,94844.00
2023-03-02T05:56:58.555Z,94840.00
2023-03-02T06:00:58.551Z,94842.00
2023-03-02T06:04:58.531Z,94842.00
2023-03-02T06:08:58.555Z,94855.00
2023-03-02T06:12:58.495Z,94859.00
2023-03-02T06:16:58.574Z,94867.00
2023-03-02T06:20:58.479Z,94873.00
2023-03-02T06:24:58.460Z,94867.00
2023-03-02T06:28:58.876Z,94869.00
2023-03-02T06:32:58.424Z,94889.00
2023-03-02T06:36:58.468Z,94879.00
2023-03-02T06:40:58.439Z,94893.00
2023-03-02T06:44:58.595Z,94896.00
2023-03-02T06:48:58.613Z,94896.00
2023-03-02T06:52:58.662Z,94895.00
2023-03-02T06:56:58.534Z,94898.00
2023-03-02T07:00:59.140Z,94898.00
2023-03-02T07:04:58.874Z,94893.00
2023-03-02T07:08:59.113Z,94900.00
2023-03-02T07:12:58.778Z,94904.00
2023-03-02T07:16:58.800Z,94902.00
2023-03-02T07:20:58.706Z,94914.00
2023-03-02T07:24:58.674Z,94908.00
2023-03-02T07:28:59.107Z,94914.00
2023-03-02T07:32:58.613Z,94912.00
2023-03-02T07:36:58.545Z,94912.00
2023-03-02T07:40:58.630Z,94916.00
2023-03-02T07:44:58.493Z,94924.00
2023-03-02T07:48:58.511Z,94920.00
2023-03-02T07:52:59.935Z,94916.00
2023-03-02T07:56:59.147Z,94920.00
2023-03-02T08:00:58.651Z,94916.00
2023-03-02T08:04:58.634Z,94920.00
2023-03-02T08:08:58.796Z,94916.00
2023-03-02T08:12:58.730Z,94924.00
2023-03-02T08:16:58.733Z,94926.00
2023-03-02T08:20:58.694Z,94924.00
2023-03-02T08:24:58.617Z,94914.00
2023-03-02T08:28:58.607Z,94916.00
2023-03-02T08:32:58.988Z,94910.00
2023-03-02T08:36:58.555Z,94906.00
2023-03-02T08:40:58.622Z,94900.00
2023-03-02T08:44:58.688Z,94898.00
2023-03-02T08:48:58.635Z,94893.00
2023-03-02T08:52:58.411Z,94875.00
2023-03-02T08:56:58.666Z,94881.00
2023-03-02T09:00:58.726Z,94869.00
2023-03-02T09:04:59.219Z,94867.00
2023-03-02T09:08:58.934Z,94857.00
2023-03-02T09:12:58.995Z,94857.00
2023-03-02T09:16:59.178Z,94863.00
2023-03-02T09:20:59.653Z,94857.00
2023-03-02T09:24:59.333Z,94857.00
2023-03-02T09:28:59.498Z,94859.00
2023-03-02T09:32:59.609Z,94851.00
2023-03-02T09:36:59.724Z,94859.00
2023-03-02T09:40:59.683Z,94859.00
2023-03-02T09:44:59.335Z,94855.00
2023-03-02T09:48:59.688Z,94847.00
2023-03-02T09:52:59.686Z,94847.00
2023-03-02T09:56:59.669Z,94844.00
2023-03-02T10:00:59.178Z,94842.00
2023-03-02T10:04:59.151Z,94836.00
2023-03-02T10:08:59.129Z,94838.00
2023-03-02T10:12:59.137Z,94828.00
2023-03-02T10:16:59.184Z,94824.00
2023-03-02T10:20:59.312Z,94820.00
2023-03-02T10:24:59.403Z,94808.00
2023-03-02T10:28:59.752Z,94806.00
2023-03-02T10:32:59.719Z,94802.00
2023-03-02T10:36:59.443Z,94800.00
2023-03-02T10:40:59.706Z,94791.00
2023-03-02T10:44:59.720Z,94785.00
2023-03-02T10:49:00.201Z,94773.00
2023-03-02T10:53:01.556Z,94771.00
2023-03-02T10:56:59.917Z,94769.00
2023-03-02T11:00:59.918Z,94769.00
2023-03-02T11:05:00.295Z,94767.00
2023-03-02T11:08:59.791Z,94761.00
2023-03-02T11:12:59.767Z,94765.00
2023-03-02T11:17:01.376Z,94763.00
2023-03-02T11:20:59.716Z,94757.00
2023-03-02T11:24:59.638Z,94751.00
2023-03-02T11:28:59.583Z,94753.00
2023-03-02T11:32:59.684Z,94749.00
2023-03-02T11:37:00.204Z,94746.00
2023-03-02T11:41:00.235Z,94742.00
2023-03-02T11:45:00.004Z,94736.00
2023-03-02T11:49:00.212Z,94740.00
2023-03-02T11:53:00.212Z,94734.00
2023-03-02T11:57:00.689Z,94732.00
2023-03-02T12:01:00.368Z,94728.00
2023-03-02T12:05:00.428Z,94724.00
2023-03-02T12:09:00.452Z,94716.00
2023-03-02T12:13:00.718Z,94708.00
2023-03-02T12:17:00.473Z,94697.00
2023-03-02T12:21:00.413Z,94691.00
2023-03-02T12:25:00.718Z,94689.00
2023-03-02T12:29:00.705Z,94689.00
2023-03-02T12:33:00.746Z,94677.00
2023-03-02T12:37:00.434Z,94677.00
2023-03-02T12:41:00.742Z,94665.00
2023-03-02T12:45:00.785Z,94663.00
2023-03-02T12:49:00.601Z,94657.00
2023-03-02T12:53:00.766Z,94651.00
2023-03-02T12:57:00.822Z,94644.00
2023-03-02T13:01:01.020Z,94640.00
2023-03-02T13:05:01.238Z,94634.00
2023-03-02T13:09:01.410Z,94624.00
2023-03-02T13:13:01.496Z,94612.00
2023-03-02T13:17:01.821Z,94614.00
2023-03-02T13:21:02.257Z,94610.00
2023-03-02T13:25:01.939Z,94604.00
2023-03-02T13:29:02.251Z,94602.00
2023-03-02T13:33:02.756Z,94599.00
2023-03-02T13:37:02.593Z,94595.00
2023-03-02T13:41:02.799Z,94593.00
2023-03-02T13:45:03.011Z,94591.00
2023-03-02T13:49:10.113Z,94595.00
2023-03-02T13:53:04.185Z,94589.00
2023-03-02T13:57:03.142Z,94589.00
2023-03-02T14:01:03.117Z,94579.00
2023-03-02T14:05:03.194Z,94575.00
2023-03-02T14:09:03.036Z,94571.00
2023-03-02T14:13:03.034Z,94571.00
2023-03-02T14:17:02.961Z,94565.00
2023-03-02T14:21:03.314Z,94565.00
2023-03-02T14:25:02.892Z,94561.00
2023-03-02T14:29:05.811Z,94567.00
2023-03-02T14:33:02.788Z,94561.00
2023-03-02T14:37:02.798Z,94555.00
2023-03-02T14:41:03.316Z,94555.00
2023-03-02T14:45:02.749Z,94555.00
2023-03-02T14:49:02.648Z,94552.00
2023-03-02T14:57:21.806Z,94548.00
2023-03-02T15:01:21.831Z,94548.00
2023-03-02T15:05:21.716Z,94548.00
2023-03-02T15:09:22.015Z,94548.00
2023-03-02T15:13:22.006Z,94552.00
2023-03-02T15:17:22.049Z,94554.00
2023-03-02T15:21:21.549Z,94548.00
2023-03-02T15:25:21.537Z,94550.00
2023-03-02T15:29:21.495Z,94552.00
2023-03-02T15:33:21.486Z,94552.00
2023-03-02T15:37:21.433Z,94555.00
2023-03-02T15:41:21.413Z,94557.00
2023-03-02T15:45:21.353Z,94565.00
2023-03-02T15:49:21.307Z,94565.00
2023-03-02T15:53:21.314Z,94567.00
2023-03-02T15:57:21.260Z,94571.00
2023-03-02T16:01:21.232Z,94575.00
2023-03-02T16:05:21.181Z,94573.00
2023-03-02T16:09:21.132Z,94577.00
2023-03-02T16:13:21.118Z,94583.00
2023-03-02T16:17:21.058Z,94585.00
2023-03-02T16:21:21.050Z,94591.00
2023-03-02T16:25:21.011Z,94597.00
2023-03-02T16:29:20.971Z,94597.00
2023-03-02T16:33:20.922Z,94606.00
2023-03-02T16:37:21.065Z,94606.00
2023-03-02T16:41:21.052Z,94614.00
2023-03-02T16:45:21.101Z,94622.00
2023-03-02T16:49:21.206Z,94634.00
2023-03-02T16:53:21.297Z,94642.00
2023-03-02T16:57:21.374Z,94646.00
2023-03-02T17:01:21.614Z,94651.00
2023-03-02T17:05:21.695Z,94659.00
2023-03-02T17:09:21.766Z,94667.00
2023-03-02T17:13:21.916Z,94673.00
2023-03-02T17:17:22.131Z,94681.00
2023-03-02T17:21:22.307Z,94689.00
2023-03-02T17:25:22.533Z,94693.00
2023-03-02T17:29:22.536Z,94697.00
2023-03-02T17:33:22.466Z,94706.00
2023-03-02T17:37:22.445Z,94714.00
2023-03-02T17:41:22.362Z,94716.00
2023-03-02T17:45:22.350Z,94726.00
2023-03-02T17:49:22.285Z,94728.00
2023-03-02T17:53:22.258Z,94734.00
2023-03-02T17:57:22.250Z,94742.00
2023-03-02T18:01:22.180Z,94748.00
2023-03-02T18:05:22.202Z,94753.00
2023-03-02T18:09:22.215Z,94759.00
2023-03-02T18:13:22.186Z,94761.00
2023-03-02T18:17:22.258Z,94767.00
2023-03-02T18:21:22.344Z,94773.00
2023-03-02T18:25:22.478Z,94783.00
2023-03-02T18:29:22.658Z,94783.00
2023-03-02T18:33:22.759Z,94791.00
2023-03-02T18:37:22.942Z,94787.00
2023-03-02T18:41:23.157Z,94793.00
2023-03-02T18:45:23.364Z,94806.00
2023-03-02T18:49:23.323Z,94812.00
2023-03-02T18:53:23.308Z,94810.00
2023-03-02T18:57:23.280Z,94814.00
2023-03-02T19:01:23.237Z,94820.00
2023-03-02T19:05:24.106Z,94826.00
2023-03-02T19:09:23.162Z,94834.00
2023-03-02T19:13:23.110Z,94836.00
2023-03-02T19:17:23.121Z,94840.00
2023-03-02T19:21:23.066Z,94844.00
2023-03-02T19:25:23.059Z,94851.00
2023-03-02T19:29:23.013Z,94855.00
2023-03-02T19:33:23.003Z,94861.00
2023-03-02T19:37:22.931Z,94863.00
2023-03-02T19:41:22.898Z,94867.00
2023-03-02T19:45:22.902Z,94871.00
2023-03-02T19:49:22.815Z,94879.00
2023-03-02T19:53:22.769Z,94889.00
2023-03-02T19:57:22.753Z,94881.00
2023-03-02T20:01:22.750Z,94896.00
2023-03-02T20:05:22.683Z,94900.00
2023-03-02T20:09:22.636Z,94906.00
2023-03-02T20:13:22.635Z,94910.00
2023-03-02T20:17:22.754Z,94912.00
2023-03-02T20:21:22.927Z,94912.00
2023-03-02T20:25:23.029Z,94920.00
2023-03-02T20:29:23.195Z,94924.00
2023-03-02T20:33:23.290Z,94922.00
2023-03-02T20:37:23.466Z,94924.00
2023-03-02T20:41:23.614Z,94930.00
2023-03-02T20:45:23.801Z,94936.00
2023-03-02T20:49:24.002Z,94936.00
2023-03-02T20:53:24.259Z,94938.00
2023-03-02T20:57:24.213Z,94943.00
2023-03-02T21:01:24.218Z,94945.00
2023-03-02T21:05:24.091Z,94953.00
2023-03-02T21:09:24.077Z,94951.00
2023-03-02T21:13:24.041Z,94949.00
2023-03-02T21:17:24.026Z,94953.00
2023-03-02T21:21:32.624Z,94953.00
2023-03-02T21:25:24.938Z,94955.00
2023-03-02T21:29:23.872Z,94955.00
2023-03-02T21:33:23.848Z,94955.00
2023-03-02T21:37:23.833Z,94957.00
2023-03-02T21:41:23.774Z,94959.00
2023-03-02T21:45:23.760Z,94959.00
2023-03-02T21:49:23.737Z,94955.00
2023-03-02T21:53:23.701Z,94957.00
2023-03-02T21:57:23.637Z,94961.00
2023-03-02T22:01:23.630Z,94957.00
2023-03-02T22:05:23.678Z,94953.00
2023-03-02T22:09:23.736Z,94949.00
2023-03-02T22:13:23.807Z,94953.00
2023-03-02T22:17:24.839Z,94953.00
2023-03-02T22:21:24.005Z,94959.00
2023-03-02T22:25:24.076Z,94963.00
2023-03-02T22:29:24.201Z,94967.00
2023-03-02T22:33:24.284Z,94969.00
2023-03-02T22:37:24.409Z,94971.00
2023-03-02T22:41:24.584Z,94969.00
2023-03-02T22:45:24.727Z,94969.00
2023-03-02T22:49:24.866Z,94971.00
2023-03-02T22:53:25.093Z,94975.00
2023-03-02T22:57:25.285Z,94975.00
2023-03-02T23:01:25.288Z,94973.00
2023-03-02T23:05:25.278Z,94977.00
2023-03-02T23:09:25.184Z,94979.00
2023-03-02T23:13:27.279Z,94985.00
2023-03-02T23:17:25.149Z,94989.00
2023-03-02T23:21:26.218Z,94993.00
2023-03-02T23:25:25.686Z,94995.00
2023-03-02T23:29:25.242Z,94997.00
2023-03-02T23:33:25.441Z,94998.00
2023-03-02T23:37:25.621Z,94995.00
2023-03-02T23:41:25.610Z,94995.00
2023-03-02T23:45:25.530Z,94997.00
2023-03-02T23:49:25.535Z,94995.00
2023-03-02T23:53:25.487Z,94998.00
2023-03-02T23:57:25.417Z,94998.00
